createdAt,value
2018-08-19T00:00:09.843Z,99.90
2018-08-19T00:02:35.842Z,99.90
2018-08-19T00:05:01.800Z,99.90
2018-08-19T00:07:27.798Z,99.90
2018-08-19T00:09:53.787Z,99.90
2018-08-19T00:12:19.767Z,99.90
2018-08-19T00:14:45.747Z,99.90
2018-08-19T00:17:11.868Z,99.90
2018-08-19T00:19:37.852Z,99.90
2018-08-19T00:22:03.845Z,99.90
2018-08-19T00:24:29.972Z,99.90
2018-08-19T00:26:56.034Z,99.90
2018-08-19T00:29:22.726Z,99.90
2018-08-19T00:31:48.696Z,99.90
2018-08-19T00:34:15.451Z,99.90
2018-08-19T00:36:41.428Z,99.90
2018-08-19T00:39:07.418Z,99.90
2018-08-19T00:41:33.376Z,99.90
2018-08-19T00:43:59.360Z,99.90
2018-08-19T00:46:25.354Z,99.90
2018-08-19T00:48:51.381Z,99.90
2018-08-19T00:51:17.360Z,99.90
2018-08-19T00:53:43.337Z,99.90
2018-08-19T00:56:09.327Z,99.90
2018-08-19T00:58:36.034Z,99.90
2018-08-19T01:01:02.009Z,99.90
2018-08-19T01:03:28.691Z,99.90
2018-08-19T01:05:54.661Z,99.90
2018-08-19T01:08:21.368Z,99.90
2018-08-19T01:10:47.354Z,99.90
2018-08-19T01:13:14.051Z,99.90
2018-08-19T01:15:40.037Z,99.90
2018-08-19T01:18:06.034Z,99.90
2018-08-19T01:20:31.990Z,99.90
2018-08-19T01:22:57.976Z,99.90
2018-08-19T01:25:23.934Z,99.90
2018-08-19T01:27:49.922Z,99.90
2018-08-19T01:30:15.906Z,99.90
2018-08-19T01:32:41.878Z,99.90
2018-08-19T01:35:07.828Z,99.90
2018-08-19T01:37:34.566Z,99.90
2018-08-19T01:40:00.546Z,99.90
2018-08-19T01:42:27.287Z,99.90
2018-08-19T01:44:53.994Z,99.90
2018-08-19T01:47:19.945Z,99.90
2018-08-19T01:49:46.656Z,99.90
2018-08-19T01:52:12.616Z,99.90
2018-08-19T01:54:39.321Z,99.90
2018-08-19T01:57:05.259Z,99.90
2018-08-19T01:59:31.206Z,99.90
2018-08-19T02:01:57.184Z,99.90
2018-08-19T02:04:23.141Z,99.90
2018-08-19T02:06:49.867Z,99.90
2018-08-19T02:09:16.582Z,99.90
2018-08-19T02:11:42.575Z,99.90
2018-08-19T02:14:08.548Z,99.90
2018-08-19T02:16:34.558Z,99.90
2018-08-19T02:19:00.539Z,99.90
2018-08-19T02:21:26.510Z,99.90
2018-08-19T02:23:52.483Z,99.90
2018-08-19T02:26:18.519Z,99.90
2018-08-19T02:28:44.496Z,99.90
2018-08-19T02:31:11.251Z,99.90
2018-08-19T02:33:37.233Z,99.90
2018-08-19T02:36:03.241Z,99.90
2018-08-19T02:38:29.211Z,99.90
2018-08-19T02:40:55.957Z,99.90
2018-08-19T02:43:22.668Z,99.90
2018-08-19T02:45:48.634Z,99.90
2018-08-19T02:48:14.628Z,99.90
2018-08-19T02:50:40.601Z,99.90
2018-08-19T02:53:06.596Z,99.90
2018-08-19T02:55:32.573Z,99.90
2018-08-19T02:57:58.577Z,99.90
2018-08-19T03:00:24.567Z,99.90
2018-08-19T03:02:50.546Z,99.90
2018-08-19T03:05:16.520Z,99.90
2018-08-19T03:07:42.519Z,99.90
2018-08-19T03:10:09.240Z,99.90
2018-08-19T03:12:35.237Z,99.90
2018-08-19T03:15:01.272Z,99.90
2018-08-19T03:17:27.211Z,99.90
2018-08-19T03:19:53.193Z,99.90
2018-08-19T03:22:19.198Z,99.90
2018-08-19T03:24:45.216Z,99.90
2018-08-19T03:27:11.191Z,99.90
2018-08-19T03:29:37.189Z,99.90
2018-08-19T03:32:03.160Z,99.90
2018-08-19T03:34:29.909Z,99.90
2018-08-19T03:36:56.621Z,99.90
2018-08-19T03:39:22.624Z,99.90
2018-08-19T03:41:49.325Z,99.90
2018-08-19T03:44:16.021Z,99.90
2018-08-19T03:46:42.020Z,99.90
2018-08-19T03:49:07.983Z,99.90
2018-08-19T03:51:33.972Z,99.90
2018-08-19T03:53:59.945Z,99.90
2018-08-19T03:56:26.679Z,99.90
2018-08-19T03:58:52.627Z,99.90
2018-08-19T04:01:18.600Z,99.90
2018-08-19T04:03:44.569Z,99.90
2018-08-19T04:06:10.554Z,99.90
2018-08-19T04:08:37.284Z,99.90
2018-08-19T04:11:03.269Z,99.90
2018-08-19T04:13:29.236Z,99.90
2018-08-19T04:15:55.222Z,99.90
2018-08-19T04:18:21.177Z,99.90
2018-08-19T04:20:47.135Z,99.90
2018-08-19T04:23:13.867Z,99.90
2018-08-19T04:25:40.562Z,99.90
2018-08-19T04:28:06.555Z,99.90
2018-08-19T04:30:32.561Z,99.90
2018-08-19T04:32:59.292Z,99.90
2018-08-19T04:35:25.258Z,99.90
2018-08-19T04:37:51.242Z,99.90
2018-08-19T04:40:17.240Z,99.90
2018-08-19T04:42:43.239Z,99.90
2018-08-19T04:45:09.182Z,99.90
2018-08-19T04:47:35.308Z,99.90
2018-08-19T04:50:01.262Z,99.90
2018-08-19T04:52:28.008Z,99.90
2018-08-19T04:54:54.737Z,99.90
2018-08-19T04:57:20.692Z,99.90
2018-08-19T04:59:46.680Z,99.90
2018-08-19T05:02:12.780Z,99.90
2018-08-19T05:04:38.740Z,99.90
2018-08-19T05:07:05.439Z,99.90
2018-08-19T05:09:31.418Z,99.90
2018-08-19T05:11:57.375Z,99.90
2018-08-19T05:14:23.390Z,99.90
2018-08-19T05:16:49.376Z,99.90
2018-08-19T05:19:16.095Z,99.90
2018-08-19T05:21:42.095Z,99.90
2018-08-19T05:24:08.057Z,99.90
2018-08-19T05:26:34.790Z,99.90
2018-08-19T05:29:00.752Z,99.90
2018-08-19T05:31:26.733Z,99.90
2018-08-19T05:33:52.687Z,99.90
2018-08-19T05:36:18.652Z,99.90
2018-08-19T05:38:44.624Z,99.90
2018-08-19T05:41:10.626Z,99.90
2018-08-19T05:43:37.335Z,99.90
2018-08-19T05:46:03.384Z,99.90
2018-08-19T05:48:29.404Z,99.90
2018-08-19T05:50:55.451Z,99.90
2018-08-19T05:53:21.489Z,99.90
2018-08-19T05:55:47.494Z,99.90
2018-08-19T05:58:14.207Z,99.90
2018-08-19T06:00:40.200Z,99.90
2018-08-19T06:03:06.154Z,99.90
2018-08-19T06:05:32.140Z,99.90
2018-08-19T06:07:58.103Z,99.90
2018-08-19T06:10:24.104Z,99.90
2018-08-19T06:12:50.076Z,99.90
2018-08-19T06:15:16.819Z,99.90
2018-08-19T06:17:43.528Z,99.90
2018-08-19T06:20:09.504Z,99.90
2018-08-19T06:22:35.498Z,99.90
2018-08-19T06:25:02.212Z,99.90
2018-08-19T06:27:28.207Z,99.90
2018-08-19T06:29:54.187Z,99.90
2018-08-19T06:32:20.917Z,99.90
2018-08-19T06:34:47.688Z,99.90
2018-08-19T06:37:14.384Z,99.90
2018-08-19T06:39:40.366Z,99.90
2018-08-19T06:42:06.338Z,99.90
2018-08-19T06:44:33.126Z,99.90
2018-08-19T06:46:59.983Z,99.90
2018-08-19T06:49:26.019Z,99.90
2018-08-19T06:51:51.951Z,99.90
2018-08-19T06:54:17.955Z,99.90
2018-08-19T06:56:43.924Z,99.90
2018-08-19T06:59:09.918Z,99.90
2018-08-19T07:01:36.534Z,99.90
2018-08-19T07:04:02.532Z,99.90
2018-08-19T07:06:28.540Z,99.90
2018-08-19T07:08:55.253Z,99.90
2018-08-19T07:11:21.263Z,99.90
2018-08-19T07:13:47.211Z,99.90
2018-08-19T07:16:13.349Z,99.90
2018-08-19T07:18:40.641Z,99.90
2018-08-19T07:21:07.735Z,99.90
2018-08-19T07:23:33.734Z,99.90
2018-08-19T07:25:59.718Z,99.90
2018-08-19T07:28:25.717Z,99.90
2018-08-19T07:30:52.486Z,99.90
2018-08-19T07:33:18.445Z,99.90
2018-08-19T07:35:44.430Z,99.90
2018-08-19T07:38:10.453Z,99.90
2018-08-19T07:40:36.437Z,99.90
2018-08-19T07:43:02.494Z,99.90
2018-08-19T07:45:28.598Z,99.90
2018-08-19T07:47:55.355Z,99.90
2018-08-19T07:50:21.340Z,99.90
2018-08-19T07:52:47.401Z,99.90
2018-08-19T07:55:13.801Z,99.90
2018-08-19T07:57:43.501Z,99.90
2018-08-19T08:00:09.531Z,99.90
2018-08-19T08:02:36.475Z,99.90
2018-08-19T08:05:02.490Z,99.90
2018-08-19T08:07:28.441Z,99.90
2018-08-19T08:09:54.454Z,99.90
2018-08-19T08:12:20.406Z,99.90
2018-08-19T08:14:47.102Z,99.90
2018-08-19T08:17:13.121Z,99.90
2018-08-19T08:19:39.103Z,99.90
2018-08-19T08:22:05.862Z,99.90
2018-08-19T08:24:31.847Z,99.90
2018-08-19T08:26:58.599Z,98.40
2018-08-19T08:29:25.293Z,99.40
2018-08-19T08:31:51.306Z,99.40
2018-08-19T08:34:17.275Z,99.90
2018-08-19T08:36:44.051Z,97.30
2018-08-19T08:39:10.052Z,97.20
2018-08-19T08:41:36.043Z,97.00
2018-08-19T08:44:02.016Z,95.30
2018-08-19T08:46:27.989Z,93.80
2018-08-19T08:48:53.978Z,93.30
2018-08-19T08:51:27.506Z,95.20
2018-08-19T08:53:53.500Z,95.20
2018-08-19T08:56:19.485Z,95.90
2018-08-19T08:58:46.230Z,95.40
2018-08-19T09:01:12.930Z,94.90
2018-08-19T09:03:38.894Z,94.90
2018-08-19T09:06:05.638Z,93.70
2018-08-19T09:08:32.336Z,91.90
2018-08-19T09:10:58.333Z,91.80
2018-08-19T09:13:24.307Z,91.30
2018-08-19T09:15:51.021Z,91.60
2018-08-19T09:18:16.993Z,91.60
2018-08-19T09:20:43.697Z,92.80
2018-08-19T09:23:10.530Z,93.10
2018-08-19T09:25:36.446Z,93.00
2018-08-19T09:28:02.499Z,95.10
2018-08-19T09:30:28.501Z,94.40
2018-08-19T09:32:55.315Z,92.70
2018-08-19T09:35:21.278Z,92.30
2018-08-19T09:37:47.268Z,91.30
2018-08-19T09:40:13.222Z,92.60
2018-08-19T09:42:39.208Z,91.50
2018-08-19T09:45:05.179Z,90.70
2018-08-19T09:47:31.164Z,91.40
2018-08-19T09:49:57.141Z,90.10
2018-08-19T09:52:23.842Z,88.10
2018-08-19T09:54:49.842Z,88.00
2018-08-19T09:57:15.807Z,90.30
2018-08-19T09:59:42.555Z,90.20
2018-08-19T10:02:09.287Z,87.80
2018-08-19T10:04:36.015Z,90.60
2018-08-19T10:07:02.001Z,90.60
2018-08-19T10:09:27.974Z,90.30
2018-08-19T10:11:57.026Z,91.60
2018-08-19T10:14:22.967Z,91.50
2018-08-19T10:16:49.662Z,92.70
2018-08-19T10:19:16.188Z,92.80
2018-08-19T10:21:42.912Z,93.70
2018-08-19T10:24:08.859Z,93.70
2018-08-19T10:26:34.908Z,94.70
2018-08-19T10:29:00.830Z,95.30
2018-08-19T10:31:26.898Z,94.20
2018-08-19T10:33:52.835Z,94.10
2018-08-19T10:36:19.529Z,94.20
2018-08-19T10:38:45.505Z,94.50
2018-08-19T10:41:12.199Z,92.10
2018-08-19T10:43:38.182Z,92.00
2018-08-19T10:46:04.924Z,92.80
2018-08-19T10:48:31.631Z,92.30
2018-08-19T10:50:57.605Z,92.30
2018-08-19T10:53:23.683Z,92.60
2018-08-19T10:55:49.603Z,91.70
2018-08-19T10:58:15.610Z,91.40
2018-08-19T11:00:42.424Z,91.20
2018-08-19T11:03:08.422Z,91.20
2018-08-19T11:05:34.429Z,92.70
2018-08-19T11:08:00.438Z,92.90
2018-08-19T11:10:27.178Z,91.90
2018-08-19T11:12:53.202Z,91.90
2018-08-19T11:15:19.212Z,92.10
2018-08-19T11:17:45.219Z,91.70
2018-08-19T11:20:11.169Z,91.70
2018-08-19T11:22:37.163Z,91.80
2018-08-19T11:25:03.129Z,91.90
2018-08-19T11:27:29.239Z,91.70
2018-08-19T11:29:55.162Z,91.40
2018-08-19T11:32:21.149Z,91.80
2018-08-19T11:34:47.110Z,90.50
2018-08-19T11:37:13.090Z,90.00
2018-08-19T11:39:39.044Z,90.70
2018-08-19T11:42:05.024Z,91.00
2018-08-19T11:44:31.015Z,91.50
2018-08-19T11:46:57.756Z,91.30
2018-08-19T11:49:23.730Z,91.30
2018-08-19T11:51:49.718Z,91.40
2018-08-19T11:54:15.697Z,90.90
2018-08-19T11:56:42.428Z,91.90
2018-08-19T11:59:08.402Z,91.90
2018-08-19T12:01:34.370Z,91.10
2018-08-19T12:04:00.346Z,91.60
2018-08-19T12:06:26.306Z,92.80
2018-08-19T12:08:52.302Z,91.20
2018-08-19T12:11:18.288Z,91.60
2018-08-19T12:13:45.965Z,92.40
2018-08-19T12:16:12.186Z,92.40
2018-08-19T12:18:38.953Z,91.90
2018-08-19T12:21:04.921Z,91.90
2018-08-19T12:23:30.923Z,92.40
2018-08-19T12:25:56.870Z,92.90
2018-08-19T12:28:22.874Z,91.30
2018-08-19T12:30:50.502Z,91.80
2018-08-19T12:33:16.485Z,93.20
2018-08-19T12:35:42.454Z,91.50
2018-08-19T12:38:08.425Z,92.40
2018-08-19T12:40:34.433Z,91.90
2018-08-19T12:43:00.424Z,91.70
2018-08-19T12:45:26.400Z,92.40
2018-08-19T12:47:53.161Z,92.80
2018-08-19T12:50:19.902Z,93.30
2018-08-19T12:52:46.656Z,92.80
2018-08-19T12:55:12.628Z,92.80
2018-08-19T12:57:38.614Z,93.00
2018-08-19T13:00:04.605Z,93.20
2018-08-19T13:02:30.577Z,93.70
2018-08-19T13:04:56.603Z,93.70
2018-08-19T13:07:22.566Z,93.70
2018-08-19T13:09:48.554Z,94.10
2018-08-19T13:12:14.521Z,93.60
2018-08-19T13:14:40.493Z,93.50
2018-08-19T13:17:06.449Z,93.20
2018-08-19T13:19:32.438Z,92.70
2018-08-19T13:21:58.514Z,93.30
2018-08-19T13:24:25.260Z,93.20
2018-08-19T13:26:51.963Z,93.20
2018-08-19T13:29:18.069Z,93.10
2018-08-19T13:31:44.069Z,93.00
2018-08-19T13:34:10.046Z,94.00
2018-08-19T13:36:35.993Z,93.70
2018-08-19T13:39:02.723Z,94.00
2018-08-19T13:41:28.673Z,94.00
2018-08-19T13:43:55.399Z,93.80
2018-08-19T13:46:22.119Z,93.70
2018-08-19T13:48:48.070Z,93.70
2018-08-19T13:51:14.789Z,95.30
2018-08-19T13:53:40.743Z,95.30
2018-08-19T13:56:06.736Z,94.70
2018-08-19T13:58:32.716Z,94.90
2018-08-19T14:00:58.704Z,95.50
2018-08-19T14:03:25.403Z,95.70
2018-08-19T14:05:51.380Z,95.60
2018-08-19T14:08:17.330Z,95.00
2018-08-19T14:10:43.328Z,95.10
2018-08-19T14:13:09.293Z,95.70
2018-08-19T14:15:35.245Z,95.70
2018-08-19T14:18:01.240Z,96.40
2018-08-19T14:20:27.268Z,95.80
2018-08-19T14:22:53.272Z,96.40
2018-08-19T14:25:19.243Z,97.10
2018-08-19T14:27:45.251Z,96.70
2018-08-19T14:30:11.319Z,96.80
2018-08-19T14:32:37.182Z,97.10
2018-08-19T14:35:03.173Z,97.60
2018-08-19T14:37:29.590Z,97.60
2018-08-19T14:39:56.158Z,97.60
2018-08-19T14:42:22.101Z,97.50
2018-08-19T14:44:48.875Z,98.30
2018-08-19T14:47:15.594Z,98.10
2018-08-19T14:49:41.559Z,98.10
2018-08-19T14:52:07.538Z,98.50
2018-08-19T14:54:33.482Z,98.70
2018-08-19T14:56:59.510Z,98.70
2018-08-19T14:59:25.502Z,98.90
2018-08-19T15:01:52.249Z,98.70
2018-08-19T15:04:18.180Z,98.80
2018-08-19T15:06:44.877Z,99.60
2018-08-19T15:09:10.865Z,99.60
2018-08-19T15:11:36.862Z,99.40
2018-08-19T15:14:02.836Z,99.60
2018-08-19T15:16:28.816Z,99.90
2018-08-19T15:18:54.791Z,99.90
2018-08-19T15:21:20.755Z,99.90
2018-08-19T15:23:46.716Z,99.90
2018-08-19T15:26:12.693Z,99.90
2018-08-19T15:28:38.693Z,99.90
2018-08-19T15:31:04.699Z,99.90
2018-08-19T15:33:30.673Z,99.90
2018-08-19T15:35:57.387Z,99.90
2018-08-19T15:38:23.671Z,99.90
2018-08-19T15:40:50.414Z,99.90
2018-08-19T15:43:16.289Z,99.90
2018-08-19T15:45:42.464Z,99.90
2018-08-19T15:48:08.458Z,99.90
2018-08-19T15:50:35.200Z,99.90
2018-08-19T15:53:01.989Z,99.90
2018-08-19T15:55:27.941Z,99.90
2018-08-19T15:57:53.940Z,99.90
2018-08-19T16:00:19.901Z,99.90
2018-08-19T16:02:46.648Z,99.90
2018-08-19T16:05:12.607Z,99.90
2018-08-19T16:07:38.575Z,99.90
2018-08-19T16:10:04.547Z,99.90
2018-08-19T16:12:30.575Z,99.90
2018-08-19T16:14:56.514Z,99.90
2018-08-19T16:17:22.468Z,99.90
2018-08-19T16:19:48.430Z,99.90
2018-08-19T16:22:14.391Z,99.90
2018-08-19T16:24:40.378Z,99.90
2018-08-19T16:27:06.350Z,99.90
2018-08-19T16:29:32.354Z,99.90
2018-08-19T16:31:58.320Z,99.90
2018-08-19T16:34:25.107Z,99.90
2018-08-19T16:36:51.081Z,99.90
2018-08-19T16:39:17.814Z,99.90
2018-08-19T16:41:43.796Z,99.90
2018-08-19T16:44:09.795Z,99.90
2018-08-19T16:46:35.789Z,99.90
2018-08-19T16:49:02.508Z,99.90
2018-08-19T16:51:28.488Z,99.90
2018-08-19T16:53:54.503Z,99.90
2018-08-19T16:56:20.502Z,99.90
2018-08-19T16:58:46.449Z,99.90
2018-08-19T17:01:13.173Z,99.90
2018-08-19T17:03:39.144Z,99.90
2018-08-19T17:06:05.161Z,99.90
2018-08-19T17:08:31.120Z,99.90
2018-08-19T17:10:57.115Z,99.90
2018-08-19T17:13:23.060Z,99.90
2018-08-19T17:15:49.008Z,99.90
2018-08-19T17:18:14.994Z,99.90
2018-08-19T17:20:40.949Z,99.90
2018-08-19T17:23:07.703Z,99.90
2018-08-19T17:25:34.421Z,99.90
2018-08-19T17:28:01.166Z,99.90
2018-08-19T17:30:27.131Z,99.90
2018-08-19T17:32:53.261Z,99.90
2018-08-19T17:35:19.820Z,99.90
2018-08-19T17:37:45.794Z,99.90
2018-08-19T17:40:12.492Z,99.90
2018-08-19T17:42:38.478Z,99.90
2018-08-19T17:45:04.445Z,99.90
2018-08-19T17:47:30.401Z,99.90
2018-08-19T17:49:57.119Z,99.90
2018-08-19T17:52:23.072Z,99.90
2018-08-19T17:54:49.066Z,99.90
2018-08-19T17:57:15.092Z,99.90
2018-08-19T17:59:41.134Z,99.90
2018-08-19T18:02:07.042Z,99.90
2018-08-19T18:04:33.785Z,99.90
2018-08-19T18:07:00.507Z,99.90
2018-08-19T18:09:26.539Z,99.90
2018-08-19T18:11:53.261Z,99.90
2018-08-19T18:14:19.252Z,99.90
2018-08-19T18:16:45.227Z,99.90
2018-08-19T18:19:11.221Z,99.90
2018-08-19T18:21:37.176Z,99.90
2018-08-19T18:24:03.127Z,99.90
2018-08-19T18:26:29.822Z,99.90
2018-08-19T18:28:55.782Z,99.90
2018-08-19T18:31:22.514Z,99.90
2018-08-19T18:33:49.202Z,99.90
2018-08-19T18:36:15.207Z,99.90
2018-08-19T18:38:41.177Z,99.90
2018-08-19T18:41:07.142Z,99.90
2018-08-19T18:43:33.855Z,99.90
2018-08-19T18:46:00.008Z,99.90
2018-08-19T18:48:25.870Z,99.90
2018-08-19T18:50:51.823Z,99.90
2018-08-19T18:53:17.812Z,99.90
2018-08-19T18:55:43.761Z,99.90
2018-08-19T18:58:09.745Z,99.90
2018-08-19T19:00:35.750Z,99.90
2018-08-19T19:03:01.749Z,99.90
2018-08-19T19:05:28.441Z,99.90
2018-08-19T19:07:54.460Z,99.90
2018-08-19T19:10:20.424Z,99.90
2018-08-19T19:12:46.380Z,99.90
2018-08-19T19:15:12.369Z,99.90
2018-08-19T19:17:38.320Z,99.90
2018-08-19T19:20:04.323Z,99.90
2018-08-19T19:22:30.285Z,99.90
2018-08-19T19:24:56.279Z,99.90
2018-08-19T19:27:22.978Z,99.90
2018-08-19T19:29:48.970Z,99.90
2018-08-19T19:32:14.922Z,99.90
2018-08-19T19:34:40.931Z,99.90
2018-08-19T19:37:06.899Z,99.90
2018-08-19T19:39:33.641Z,99.90
2018-08-19T19:42:00.354Z,99.90
2018-08-19T19:44:26.352Z,99.90
2018-08-19T19:46:52.329Z,99.90
2018-08-19T19:49:19.086Z,99.90
2018-08-19T19:51:45.060Z,99.90
2018-08-19T19:54:11.016Z,99.90
2018-08-19T19:56:37.003Z,99.90
2018-08-19T19:59:02.977Z,99.90
2018-08-19T20:01:29.699Z,99.90
2018-08-19T20:03:55.639Z,99.90
2018-08-19T20:06:22.360Z,99.90
2018-08-19T20:08:49.072Z,99.90
2018-08-19T20:11:15.144Z,99.90
2018-08-19T20:13:41.564Z,99.90
2018-08-19T20:16:08.114Z,99.90
2018-08-19T20:18:34.103Z,99.90
2018-08-19T20:21:00.094Z,99.90
2018-08-19T20:23:26.061Z,99.90
2018-08-19T20:25:52.774Z,99.90
2018-08-19T20:28:19.545Z,99.90
2018-08-19T20:30:46.263Z,99.90
2018-08-19T20:33:12.367Z,99.90
2018-08-19T20:35:38.358Z,99.90
2018-08-19T20:38:05.084Z,99.90
2018-08-19T20:40:31.188Z,99.90
2018-08-19T20:42:57.213Z,99.90
2018-08-19T20:45:23.968Z,99.90
2018-08-19T20:47:50.675Z,99.90
2018-08-19T20:50:16.682Z,99.90
2018-08-19T20:52:42.695Z,99.90
2018-08-19T20:55:08.677Z,99.90
2018-08-19T20:57:35.418Z,99.90
2018-08-19T21:00:02.177Z,99.90
2018-08-19T21:02:28.181Z,99.90
2018-08-19T21:04:54.895Z,99.90
2018-08-19T21:07:20.890Z,99.90
2018-08-19T21:09:46.993Z,99.90
2018-08-19T21:12:12.994Z,99.90
2018-08-19T21:14:39.731Z,99.90
2018-08-19T21:17:06.472Z,99.90
2018-08-19T21:19:32.429Z,99.90
2018-08-19T21:21:58.423Z,99.90
2018-08-19T21:24:25.106Z,99.90
2018-08-19T21:26:51.103Z,99.90
2018-08-19T21:29:17.799Z,99.90
2018-08-19T21:31:43.798Z,99.90
2018-08-19T21:34:09.740Z,99.90
2018-08-19T21:36:35.768Z,99.90
2018-08-19T21:39:01.762Z,99.90
2018-08-19T21:41:27.713Z,99.90
2018-08-19T21:43:53.760Z,99.90
2018-08-19T21:46:20.479Z,99.90
2018-08-19T21:48:46.472Z,99.90
2018-08-19T21:51:12.565Z,99.90
2018-08-19T21:53:38.636Z,99.90
2018-08-19T21:56:04.652Z,99.90
2018-08-19T21:58:30.785Z,99.90
2018-08-19T22:00:56.756Z,99.90
2018-08-19T22:03:22.999Z,99.90
2018-08-19T22:05:48.979Z,99.90
2018-08-19T22:08:14.961Z,99.90
2018-08-19T22:10:40.956Z,99.90
2018-08-19T22:13:07.737Z,99.90
2018-08-19T22:15:33.816Z,99.90
2018-08-19T22:17:59.815Z,99.90
2018-08-19T22:20:25.875Z,99.90
2018-08-19T22:22:52.654Z,99.90
2018-08-19T22:25:19.489Z,99.90
2018-08-19T22:27:46.218Z,99.90
2018-08-19T22:30:12.197Z,99.90
2018-08-19T22:32:38.192Z,99.90
2018-08-19T22:35:04.199Z,99.90
2018-08-19T22:37:30.889Z,99.90
2018-08-19T22:39:56.977Z,99.90
2018-08-19T22:42:22.858Z,99.90
2018-08-19T22:44:49.558Z,99.90
2018-08-19T22:47:15.555Z,99.90
2018-08-19T22:49:41.522Z,99.90
2018-08-19T22:52:07.559Z,99.90
2018-08-19T22:54:34.268Z,99.90
2018-08-19T22:57:00.275Z,99.90
2018-08-19T22:59:26.245Z,99.90
2018-08-19T23:01:52.976Z,99.90
2018-08-19T23:04:18.938Z,99.90
2018-08-19T23:06:44.905Z,99.90
2018-08-19T23:09:10.899Z,99.90
2018-08-19T23:11:36.896Z,99.90
2018-08-19T23:14:02.889Z,99.90
2018-08-19T23:16:28.868Z,99.90
2018-08-19T23:18:54.865Z,99.90
2018-08-19T23:21:20.872Z,99.90
2018-08-19T23:23:46.862Z,99.90
2018-08-19T23:26:12.843Z,99.90
2018-08-19T23:28:38.854Z,99.90
2018-08-19T23:31:05.559Z,99.90
2018-08-19T23:33:31.564Z,99.90
2018-08-19T23:35:57.541Z,99.90
2018-08-19T23:38:23.494Z,99.90
2018-08-19T23:40:49.473Z,99.90
2018-08-19T23:43:16.194Z,99.90
2018-08-19T23:45:42.202Z,99.90
2018-08-19T23:48:08.195Z,99.90
2018-08-19T23:50:34.185Z,99.90
2018-08-19T23:53:00.891Z,99.90
2018-08-19T23:55:26.895Z,99.90
2018-08-19T23:57:52.878Z,99.90
